Sign-in with your pilot id or email, or register

ICAO: UKLL Name / Country: Lviv Danylo Halytskyi International Airport / Ukraine
Latitude: 49.8125 Longitude: 23.9561
Total Arrivals:
Strict Standards: Non-static method AirportData::getarrflights() should not be called statically, assuming $this from incompatible context in /var/www/customers/vh-7192/web/home/phpvms/core/templates/airport_info.tpl on line 18
1
Total Departures:
Strict Standards: Non-static method AirportData::getdeptflights() should not be called statically, assuming $this from incompatible context in /var/www/customers/vh-7192/web/home/phpvms/core/templates/airport_info.tpl on line 21
1
Latest Arrival: MTA11P (LHBP-UKLL) Tibor Berces Latest Departure: MTA11P (UKLL-LHBP) Tibor Berces
Metar: UKLL 221500Z 24002MPS CAVOK 16/08 Q1018 R31/CLRD// NOSIG
More info

Charts for UKLL


NOTAM


Warning: file_get_contents(http://api.vateud.net/notams/UKLL.json): failed to open stream: Redirection limit reached, aborting in /var/www/customers/vh-7192/web/home/phpvms/core/common/NOTAMSData.class.php on line 18

Warning: Invalid argument supplied for foreach() in /var/www/customers/vh-7192/web/home/phpvms/core/common/NOTAMSData.class.php on line 22

Lviv Danylo Halytskyi International Airport